Washington, DC

4:42 AM EDT on August 28, 2016 (GMT -0400)
Eckington Pl, NE | | Change Station

Elev 90 ft 38.91 °N, 77.01 °W | Updated 3 minutes ago

Scattered Clouds
Scattered Clouds
74.8 °F
Feels Like 75 °F
N
3.0
Wind Variable Wind from NW
Gusts 4.0 mph

Today
High -- | Low -- °F
--% Chance of Precip.
Yesterday
High -- | Low -- °F
Precip. -- in
Pressure 30.20 in
Visibility 10.0 miles
Clouds Few 1500 ft
Scattered Clouds 25000 ft
Heat Index 75 °F
Dew Point 70 °F
Humidity 84%
Rainfall Not available.
Snow Depth Not available.
6:33 AM 7:43 PM
Waning Crescent, 17% visible
METAR KDCA 280752Z 00000KT 10SM FEW015 SCT250 24/22 A3020 RMK AO2 SLP226 T02440222 $
Pressure 30.20 in
Visibility 10.0 miles
Clouds Few 1500 ft
Scattered Clouds 25000 ft
Heat Index 75 °F
Dew Point 70 °F
Humidity 84%
Rainfall Not available.
Snow Depth Not available.
6:33 AM 7:43 PM
Waning Crescent, 17% visible
METAR KDCA 280752Z 00000KT 10SM FEW015 SCT250 24/22 A3020 RMK AO2 SLP226 T02440222 $

10-Day Weather Forecast

Almanac

Astronomy

Aug. 28, 2016 Rise Set
Actual Time
Civil Twilight
Nautical Twilight
Astronomical Twilight
Moon
Length of Visible Light
Length of Day
Tomorrow will be .
, % of the Moon is Illuminated

Today's Extremes

State Highs State Lows

Community

WunderPhotos

Upload Photos

1,935,540 photos uploaded!

WunderBlog® & News

Nearby

Air Quality

  Air Quality AQ Index Pollutant
Not available.

Snow Depth

Station Depth Elevation

Earthquake Activity

City Distance Mag. Time & Date
Minimum magnitude displayed is 2.5.

Coastal Water Temperatures

Place Temperature

Stations

Nearby Weather Stations

Station Location Temp. Windchill Dew Point Humidity Wind Precip. Elev Updated Type
                   

Watches & Warnings

There are currently no watches in effect.